createdAt,value
2023-02-13T00:00:23.635Z,10.55
2023-02-13T00:02:51.728Z,15.88
2023-02-13T00:05:20.911Z,16.38
2023-02-13T00:07:47.785Z,16.35
2023-02-13T00:10:14.904Z,16.40
2023-02-13T00:12:41.935Z,16.45
2023-02-13T00:15:10.367Z,15.23
2023-02-13T00:17:37.391Z,16.08
2023-02-13T00:20:05.493Z,15.57
2023-02-13T00:22:36.430Z,14.73
2023-02-13T00:25:04.680Z,14.05
2023-02-13T00:27:31.932Z,13.20
2023-02-13T00:29:58.889Z,11.90
2023-02-13T00:32:25.939Z,11.75
2023-02-13T00:34:52.881Z,10.38
2023-02-13T00:37:19.774Z,11.70
2023-02-13T00:39:46.585Z,10.18
2023-02-13T00:42:13.491Z,13.27
2023-02-13T00:44:40.349Z,12.00
2023-02-13T00:47:07.222Z,11.23
2023-02-13T00:49:34.167Z,10.52
2023-02-13T00:52:00.981Z,12.13
2023-02-13T00:54:27.905Z,10.63
2023-02-13T00:56:54.741Z,10.32
2023-02-13T00:59:21.593Z,10.52
2023-02-13T01:01:48.846Z,12.27
2023-02-13T01:04:15.796Z,9.50
2023-02-13T01:06:42.707Z,9.48
2023-02-13T01:09:09.555Z,8.48
2023-02-13T01:11:36.421Z,8.90
2023-02-13T01:14:03.673Z,8.98
2023-02-13T01:16:30.533Z,8.02
2023-02-13T01:18:57.412Z,8.38
2023-02-13T01:21:24.551Z,7.00
2023-02-13T01:23:51.794Z,7.72
2023-02-13T01:26:24.345Z,7.25
2023-02-13T01:28:55.910Z,7.97
2023-02-13T01:31:22.847Z,7.22
2023-02-13T01:33:49.764Z,9.32
2023-02-13T01:36:16.667Z,6.40
2023-02-13T01:38:43.703Z,6.22
2023-02-13T01:41:11.553Z,7.13
2023-02-13T01:43:52.729Z,8.50
2023-02-13T01:46:54.188Z,7.05
2023-02-13T01:49:25.319Z,6.03
2023-02-13T01:51:55.800Z,7.60
2023-02-13T01:54:33.819Z,6.45
2023-02-13T01:57:06.049Z,7.63
2023-02-13T01:59:38.738Z,5.70
2023-02-13T02:02:05.758Z,8.55
2023-02-13T02:04:34.817Z,9.70
2023-02-13T02:07:18.042Z,9.65
2023-02-13T02:09:46.061Z,9.13
2023-02-13T02:12:24.070Z,8.98
2023-02-13T02:14:53.290Z,7.85
2023-02-13T02:17:24.264Z,9.35
2023-02-13T02:20:18.284Z,8.95
2023-02-13T02:23:19.522Z,7.28
2023-02-13T02:26:17.185Z,10.02
2023-02-13T02:29:17.577Z,7.03
2023-02-13T02:31:56.366Z,7.78
2023-02-13T02:34:52.841Z,5.78
2023-02-13T02:37:25.910Z,7.53
2023-02-13T02:40:30.883Z,8.13
2023-02-13T02:45:53.560Z,7.45
2023-02-13T02:49:02.056Z,7.68
2023-02-13T02:51:39.633Z,6.90
2023-02-13T02:54:27.723Z,7.00
2023-02-13T02:57:01.568Z,7.03
2023-02-13T02:59:50.161Z,6.47
2023-02-13T03:02:49.847Z,8.07
2023-02-13T03:05:48.853Z,7.95
2023-02-13T03:08:36.713Z,8.15
2023-02-13T03:11:22.219Z,7.05
2023-02-13T03:13:50.239Z,7.30
2023-02-13T03:16:53.783Z,8.82
2023-02-13T03:20:10.620Z,8.27
2023-02-13T03:23:14.069Z,7.15
2023-02-13T03:26:02.117Z,4.95
2023-02-13T03:28:57.289Z,7.00
2023-02-13T03:31:33.430Z,7.47
2023-02-13T03:34:09.268Z,11.00
2023-02-13T03:37:00.367Z,7.30
2023-02-13T03:39:35.639Z,9.25
2023-02-13T03:42:07.012Z,9.30
2023-02-13T03:45:09.895Z,9.68
2023-02-13T03:47:37.740Z,9.43
2023-02-13T03:50:07.963Z,8.88
2023-02-13T03:52:39.036Z,10.02
2023-02-13T03:55:30.608Z,7.55
2023-02-13T03:58:22.165Z,8.88
2023-02-13T04:00:54.406Z,7.40
2023-02-13T04:03:44.859Z,8.45
2023-02-13T04:06:15.751Z,8.55
2023-02-13T04:08:43.175Z,9.57
2023-02-13T04:11:15.764Z,9.32
2023-02-13T04:13:51.706Z,7.72
2023-02-13T04:16:30.102Z,9.80
2023-02-13T04:18:58.062Z,8.25
2023-02-13T04:21:25.302Z,7.50
2023-02-13T04:23:52.189Z,7.85
2023-02-13T04:26:21.835Z,6.20
2023-02-13T04:28:48.900Z,6.60
2023-02-13T04:31:15.967Z,7.75
2023-02-13T04:33:42.904Z,6.70
2023-02-13T04:36:09.823Z,7.68
2023-02-13T04:38:36.699Z,7.93
2023-02-13T04:41:03.563Z,7.53
2023-02-13T04:43:30.417Z,8.00
2023-02-13T04:45:57.493Z,8.57
2023-02-13T04:48:24.367Z,10.45
2023-02-13T04:50:51.276Z,7.05
2023-02-13T04:53:18.118Z,7.13
2023-02-13T04:55:44.931Z,9.48
2023-02-13T04:58:11.887Z,8.50
2023-02-13T05:00:38.779Z,9.13
2023-02-13T05:03:11.011Z,6.85
2023-02-13T05:05:38.569Z,7.50
2023-02-13T05:08:07.215Z,6.55
2023-02-13T05:10:34.340Z,8.52
2023-02-13T05:13:01.533Z,7.70
2023-02-13T05:15:28.794Z,6.63
2023-02-13T05:17:55.617Z,8.05
2023-02-13T05:20:22.450Z,8.93
2023-02-13T05:23:12.691Z,8.98
2023-02-13T05:25:42.206Z,8.82
2023-02-13T05:28:28.087Z,6.85
2023-02-13T05:30:55.206Z,7.18
2023-02-13T05:33:22.235Z,6.40
2023-02-13T05:35:49.092Z,6.10
2023-02-13T05:38:15.984Z,6.13
2023-02-13T05:40:42.845Z,7.43
2023-02-13T05:43:09.687Z,6.07
2023-02-13T05:45:36.593Z,6.03
2023-02-13T05:48:03.571Z,6.65
2023-02-13T05:50:30.444Z,9.02
2023-02-13T05:52:57.408Z,8.63
2023-02-13T05:55:24.244Z,9.20
2023-02-13T05:57:55.475Z,6.10
2023-02-13T06:00:22.497Z,6.90
2023-02-13T06:02:49.388Z,7.35
2023-02-13T06:05:16.376Z,8.45
2023-02-13T06:07:43.251Z,8.40
2023-02-13T06:10:10.355Z,6.45
2023-02-13T06:12:38.152Z,6.53
2023-02-13T06:15:05.650Z,6.97
2023-02-13T06:17:32.463Z,7.22
2023-02-13T06:19:59.267Z,6.28
2023-02-13T06:22:26.097Z,8.48
2023-02-13T06:24:53.005Z,6.60
2023-02-13T06:27:19.993Z,7.88
2023-02-13T06:29:46.880Z,6.28
2023-02-13T06:32:13.900Z,7.10
2023-02-13T06:34:40.723Z,7.55
2023-02-13T06:37:07.556Z,6.30
2023-02-13T06:39:34.585Z,7.10
2023-02-13T06:42:01.444Z,6.13
2023-02-13T06:44:28.336Z,7.28
2023-02-13T06:46:55.263Z,5.75
2023-02-13T06:49:22.105Z,6.75
2023-02-13T06:51:48.978Z,6.10
2023-02-13T06:54:15.937Z,6.78
2023-02-13T06:56:42.741Z,64.38
2023-02-13T06:59:09.658Z,153.60
2023-02-13T07:01:36.456Z,133.02
2023-02-13T07:04:03.324Z,98.07
2023-02-13T07:06:30.197Z,39.25
2023-02-13T07:08:57.042Z,30.02
2023-02-13T07:11:25.251Z,15.68
2023-02-13T07:13:52.453Z,10.82
2023-02-13T07:16:19.668Z,10.30
2023-02-13T07:18:46.557Z,16.33
2023-02-13T07:21:13.700Z,15.95
2023-02-13T07:23:40.720Z,21.80
2023-02-13T07:26:07.608Z,20.63
2023-02-13T07:28:34.555Z,24.08
2023-02-13T07:31:06.060Z,25.77
2023-02-13T07:33:36.952Z,30.05
2023-02-13T07:36:04.607Z,45.00
2023-02-13T07:38:32.495Z,43.22
2023-02-13T07:41:00.570Z,43.55
2023-02-13T07:43:29.625Z,22.05
2023-02-13T07:46:03.120Z,15.68
2023-02-13T07:48:31.601Z,14.50
2023-02-13T07:51:04.333Z,15.02
2023-02-13T07:53:32.054Z,13.93
2023-02-13T07:56:02.272Z,27.70
2023-02-13T07:58:29.220Z,19.40
2023-02-13T08:00:56.125Z,21.52
2023-02-13T08:03:22.952Z,13.75
2023-02-13T08:05:51.388Z,12.13
2023-02-13T08:08:18.240Z,11.80
2023-02-13T08:11:03.436Z,15.55
2023-02-13T08:13:30.373Z,22.67
2023-02-13T08:15:57.502Z,17.27
2023-02-13T08:18:24.600Z,96.90
2023-02-13T08:20:51.420Z,74.30
2023-02-13T08:23:18.436Z,41.65
2023-02-13T08:25:45.362Z,26.52
2023-02-13T08:28:12.292Z,18.48
2023-02-13T08:30:39.420Z,13.30
2023-02-13T08:33:06.288Z,15.13
2023-02-13T08:35:33.235Z,20.83
2023-02-13T08:38:04.866Z,24.77
2023-02-13T08:40:32.725Z,52.50
2023-02-13T08:43:01.822Z,27.02
2023-02-13T08:45:28.894Z,23.02
2023-02-13T08:48:00.101Z,29.48
2023-02-13T08:50:27.983Z,22.27
2023-02-13T08:52:54.821Z,26.52
2023-02-13T08:55:21.771Z,20.17
2023-02-13T08:57:48.813Z,14.05
2023-02-13T09:00:15.956Z,10.45
2023-02-13T09:02:42.897Z,10.32
2023-02-13T09:05:09.852Z,11.25
2023-02-13T09:07:36.972Z,14.43
2023-02-13T09:10:04.149Z,6.90
2023-02-13T09:12:31.026Z,5.88
2023-02-13T09:14:57.930Z,7.07
2023-02-13T09:17:24.898Z,6.43
2023-02-13T09:19:51.759Z,6.95
2023-02-13T09:22:18.637Z,6.20
2023-02-13T09:24:45.523Z,6.88
2023-02-13T09:27:12.533Z,7.63
2023-02-13T09:29:39.503Z,5.68
2023-02-13T09:32:07.129Z,6.65
2023-02-13T09:34:34.212Z,9.23
2023-02-13T09:37:01.063Z,7.95
2023-02-13T09:39:28.023Z,8.23
2023-02-13T09:41:55.927Z,6.50
2023-02-13T09:44:42.199Z,7.32
2023-02-13T09:47:37.727Z,6.95
2023-02-13T09:50:20.047Z,8.60
2023-02-13T09:52:47.948Z,7.55
2023-02-13T09:55:18.822Z,6.05
2023-02-13T09:58:20.853Z,7.68
2023-02-13T10:00:56.208Z,8.75
2023-02-13T10:03:34.020Z,9.88
2023-02-13T10:06:19.770Z,14.48
2023-02-13T10:09:07.717Z,10.77
2023-02-13T10:11:47.443Z,9.88
2023-02-13T10:14:26.340Z,8.45
2023-02-13T10:16:53.109Z,7.47
2023-02-13T10:19:58.571Z,7.90
2023-02-13T10:22:44.692Z,6.68
2023-02-13T10:25:24.335Z,9.77
2023-02-13T10:28:00.684Z,7.70
2023-02-13T10:30:53.094Z,8.57
2023-02-13T10:33:28.426Z,10.02
2023-02-13T10:36:09.812Z,11.32
2023-02-13T10:39:00.857Z,9.38
2023-02-13T10:41:36.563Z,10.15
2023-02-13T10:44:22.025Z,9.40
2023-02-13T10:46:57.592Z,10.45
2023-02-13T10:49:47.368Z,9.60
2023-02-13T10:52:42.020Z,9.43
2023-02-13T10:55:15.325Z,10.10
2023-02-13T10:58:16.116Z,11.32
2023-02-13T11:00:48.796Z,9.52
2023-02-13T11:03:24.626Z,10.50
2023-02-13T11:05:53.014Z,8.65
2023-02-13T11:08:44.500Z,10.57
2023-02-13T11:11:37.440Z,12.98
2023-02-13T11:14:10.872Z,13.82
2023-02-13T11:17:01.336Z,12.15
2023-02-13T11:19:49.012Z,11.00
2023-02-13T11:22:30.800Z,10.32
2023-02-13T11:25:20.271Z,11.73
2023-02-13T11:27:49.616Z,12.18
2023-02-13T11:30:35.721Z,8.93
2023-02-13T11:33:06.270Z,10.93
2023-02-13T11:35:35.491Z,9.73
2023-02-13T11:38:15.557Z,11.93
2023-02-13T11:41:13.413Z,8.27
2023-02-13T11:43:54.690Z,9.57
2023-02-13T11:46:24.531Z,10.30
2023-02-13T11:49:06.571Z,11.00
2023-02-13T11:51:40.109Z,9.60
2023-02-13T11:54:17.920Z,8.77
2023-02-13T11:57:04.032Z,8.40
2023-02-13T11:59:40.195Z,10.25
2023-02-13T12:02:23.357Z,10.55
2023-02-13T12:04:53.248Z,10.30
2023-02-13T12:07:32.496Z,10.27
2023-02-13T12:10:02.375Z,11.73
2023-02-13T12:12:35.446Z,8.50
2023-02-13T12:15:19.482Z,8.20
2023-02-13T12:17:51.184Z,10.50
2023-02-13T12:20:18.503Z,11.38
2023-02-13T12:23:09.882Z,7.68
2023-02-13T12:26:13.807Z,9.70
2023-02-13T12:28:46.310Z,8.20
2023-02-13T12:31:25.051Z,9.82
2023-02-13T12:34:22.549Z,11.55
2023-02-13T12:37:15.564Z,9.00
2023-02-13T12:39:48.852Z,8.15
2023-02-13T12:42:41.201Z,8.32
2023-02-13T12:45:37.446Z,8.15
2023-02-13T12:48:24.116Z,8.13
2023-02-13T12:51:00.026Z,6.50
2023-02-13T12:53:34.560Z,9.80
2023-02-13T12:56:19.417Z,9.20
2023-02-13T12:59:01.540Z,8.88
2023-02-13T13:01:55.809Z,9.57
2023-02-13T13:04:28.616Z,10.32
2023-02-13T13:07:23.947Z,8.63
2023-02-13T13:10:15.987Z,7.95
2023-02-13T13:13:03.900Z,9.20
2023-02-13T13:15:54.199Z,8.55
2023-02-13T13:18:29.203Z,8.45
2023-02-13T13:21:08.441Z,7.75
2023-02-13T13:23:46.896Z,9.48
2023-02-13T13:26:37.289Z,7.65
2023-02-13T13:29:11.131Z,8.02
2023-02-13T13:31:38.434Z,7.88
2023-02-13T13:34:13.692Z,6.97
2023-02-13T13:36:50.205Z,6.57
2023-02-13T13:39:32.096Z,6.95
2023-02-13T13:42:24.485Z,6.60
2023-02-13T13:45:11.152Z,4.97
2023-02-13T13:47:56.533Z,6.28
2023-02-13T13:50:30.023Z,6.05
2023-02-13T13:53:08.988Z,7.05
2023-02-13T13:55:48.005Z,5.68
2023-02-13T13:58:23.879Z,7.03
2023-02-13T14:01:16.018Z,5.95
2023-02-13T14:03:48.038Z,6.55
2023-02-13T14:06:17.668Z,6.00
2023-02-13T14:08:44.493Z,6.43
2023-02-13T14:11:32.104Z,6.68
2023-02-13T14:13:59.929Z,5.63
2023-02-13T14:16:44.703Z,6.65
2023-02-13T14:19:39.692Z,5.70
2023-02-13T14:22:37.720Z,7.03
2023-02-13T14:25:21.893Z,6.15
2023-02-13T14:28:03.951Z,7.05
2023-02-13T14:30:37.964Z,5.78
2023-02-13T14:33:07.723Z,6.00
2023-02-13T14:35:37.523Z,7.43
2023-02-13T14:38:23.967Z,6.90
2023-02-13T14:40:52.325Z,8.13
2023-02-13T14:43:25.952Z,6.63
2023-02-13T14:46:07.600Z,6.20
2023-02-13T14:48:55.479Z,6.95
2023-02-13T14:51:30.815Z,5.50
2023-02-13T14:54:03.604Z,8.05
2023-02-13T14:56:31.646Z,7.93
2023-02-13T14:59:25.179Z,8.82
2023-02-13T15:01:59.432Z,11.33
2023-02-13T15:04:35.650Z,12.63
2023-02-13T15:07:05.293Z,10.63
2023-02-13T15:09:39.749Z,10.15
2023-02-13T15:12:25.032Z,6.18
2023-02-13T15:14:51.937Z,5.20
2023-02-13T15:17:25.977Z,6.70
2023-02-13T15:19:55.457Z,3.97
2023-02-13T15:22:35.601Z,5.13
2023-02-13T15:25:03.325Z,6.22
2023-02-13T15:27:40.541Z,5.05
2023-02-13T15:30:28.367Z,4.80
2023-02-13T15:33:25.561Z,5.80
2023-02-13T15:36:05.309Z,4.22
2023-02-13T15:38:36.880Z,7.32
2023-02-13T15:41:11.198Z,4.78
2023-02-13T15:43:39.998Z,6.22
2023-02-13T15:46:18.891Z,4.68
2023-02-13T15:48:46.616Z,6.18
2023-02-13T15:51:39.846Z,7.75
2023-02-13T15:54:35.597Z,4.35
2023-02-13T15:57:07.324Z,4.70
2023-02-13T15:59:37.376Z,5.82
2023-02-13T16:02:11.974Z,5.53
2023-02-13T16:04:40.939Z,5.13
2023-02-13T16:07:12.155Z,4.93
2023-02-13T16:09:39.066Z,4.35
2023-02-13T16:12:25.486Z,4.85
2023-02-13T16:14:54.494Z,6.20
2023-02-13T16:17:34.540Z,5.45
2023-02-13T16:20:12.476Z,5.13
2023-02-13T16:23:02.537Z,5.97
2023-02-13T16:25:38.031Z,5.60
2023-02-13T16:28:16.808Z,4.65
2023-02-13T16:30:58.659Z,5.65
2023-02-13T16:33:33.906Z,6.68
2023-02-13T16:36:09.961Z,6.95
2023-02-13T16:38:48.268Z,5.85
2023-02-13T16:41:17.881Z,7.15
2023-02-13T16:43:47.487Z,5.15
2023-02-13T16:46:24.553Z,5.38
2023-02-13T16:48:57.335Z,6.03
2023-02-13T16:51:35.832Z,5.80
2023-02-13T16:54:11.456Z,5.97
2023-02-13T16:56:46.371Z,6.97
2023-02-13T16:59:22.081Z,7.47
2023-02-13T17:02:02.033Z,6.47
2023-02-13T17:04:29.669Z,6.32
2023-02-13T17:06:56.584Z,5.82
2023-02-13T17:09:23.870Z,6.72
2023-02-13T17:11:52.511Z,7.43
2023-02-13T17:14:20.581Z,5.55
2023-02-13T17:16:48.730Z,6.80
2023-02-13T17:19:15.676Z,5.60
2023-02-13T17:21:42.606Z,6.50
2023-02-13T17:24:17.873Z,7.20
2023-02-13T17:26:44.723Z,7.07
2023-02-13T17:29:11.625Z,6.82
2023-02-13T17:31:38.608Z,9.15
2023-02-13T17:34:05.905Z,5.43
2023-02-13T17:36:32.703Z,6.80
2023-02-13T17:38:59.704Z,6.45
2023-02-13T17:41:26.577Z,6.97
2023-02-13T17:43:53.467Z,6.55
2023-02-13T17:46:20.414Z,7.78
2023-02-13T17:48:47.233Z,6.85
2023-02-13T17:51:14.703Z,6.68
2023-02-13T17:53:41.780Z,7.50
2023-02-13T17:56:08.676Z,9.35
2023-02-13T17:58:35.529Z,7.97
2023-02-13T18:01:02.915Z,7.25
2023-02-13T18:03:30.010Z,7.20
2023-02-13T18:05:56.901Z,7.53
2023-02-13T18:08:23.784Z,7.97
2023-02-13T18:10:50.672Z,7.47
2023-02-13T18:13:17.695Z,7.88
2023-02-13T18:15:45.238Z,8.25
2023-02-13T18:18:16.076Z,9.57
2023-02-13T18:20:43.873Z,7.20
2023-02-13T18:23:11.249Z,6.18
2023-02-13T18:25:38.078Z,6.28
2023-02-13T18:28:04.972Z,8.80
2023-02-13T18:30:31.962Z,8.38
2023-02-13T18:32:59.378Z,7.15
2023-02-13T18:35:26.704Z,7.82
2023-02-13T18:37:53.661Z,8.73
2023-02-13T18:40:20.652Z,8.00
2023-02-13T18:42:48.745Z,7.97
2023-02-13T18:45:17.980Z,8.27
2023-02-13T18:47:44.887Z,8.80
2023-02-13T18:50:11.921Z,9.20
2023-02-13T18:52:38.936Z,11.10
2023-02-13T18:55:09.385Z,10.80
2023-02-13T18:57:36.325Z,8.57
2023-02-13T19:00:05.210Z,7.65
2023-02-13T19:02:33.480Z,7.72
2023-02-13T19:05:01.407Z,9.07
2023-02-13T19:07:28.443Z,9.20
2023-02-13T19:09:55.956Z,8.68
2023-02-13T19:12:22.820Z,8.70
2023-02-13T19:14:49.644Z,8.85
2023-02-13T19:17:16.454Z,7.85
2023-02-13T19:19:46.340Z,8.07
2023-02-13T19:22:13.272Z,7.93
2023-02-13T19:24:41.607Z,8.23
2023-02-13T19:27:08.674Z,8.32
2023-02-13T19:29:35.554Z,8.32
2023-02-13T19:32:02.501Z,9.55
2023-02-13T19:34:29.705Z,10.32
2023-02-13T19:36:56.634Z,10.13
2023-02-13T19:39:23.442Z,10.30
2023-02-13T19:41:50.251Z,9.05
2023-02-13T19:44:17.080Z,9.45
2023-02-13T19:46:44.111Z,9.88
2023-02-13T19:49:11.389Z,9.30
2023-02-13T19:51:38.971Z,9.57
2023-02-13T19:54:07.844Z,10.57
2023-02-13T19:56:37.698Z,10.02
2023-02-13T19:59:06.918Z,10.20
2023-02-13T20:01:33.846Z,9.45
2023-02-13T20:04:00.776Z,10.52
2023-02-13T20:06:31.950Z,12.25
2023-02-13T20:09:00.176Z,10.20
2023-02-13T20:11:27.117Z,10.80
2023-02-13T20:13:55.713Z,10.73
2023-02-13T20:16:23.670Z,10.05
2023-02-13T20:18:50.782Z,13.45
2023-02-13T20:21:20.812Z,14.15
2023-02-13T20:23:51.500Z,10.00
2023-02-13T20:26:19.171Z,10.65
2023-02-13T20:28:46.992Z,9.63
2023-02-13T20:31:19.962Z,10.82
2023-02-13T20:33:47.845Z,13.43
2023-02-13T20:36:23.533Z,9.05
2023-02-13T20:38:52.856Z,9.98
2023-02-13T20:41:22.304Z,12.02
2023-02-13T20:43:49.589Z,9.63
2023-02-13T20:46:18.208Z,10.15
2023-02-13T20:48:47.637Z,8.82
2023-02-13T20:51:16.240Z,10.90
2023-02-13T20:53:44.217Z,12.57
2023-02-13T20:56:15.300Z,11.25
2023-02-13T20:58:44.345Z,12.57
2023-02-13T21:01:17.087Z,9.02
2023-02-13T21:03:44.728Z,11.40
2023-02-13T21:06:11.906Z,7.80
2023-02-13T21:08:39.177Z,9.75
2023-02-13T21:11:07.674Z,11.65
2023-02-13T21:13:35.637Z,8.75
2023-02-13T21:16:11.428Z,9.15
2023-02-13T21:18:39.784Z,9.68
2023-02-13T21:21:08.249Z,7.70
2023-02-13T21:23:35.890Z,9.52
2023-02-13T21:26:05.490Z,8.93
2023-02-13T21:28:32.769Z,9.90
2023-02-13T21:31:04.673Z,8.48
2023-02-13T21:33:31.564Z,12.30
2023-02-13T21:36:03.527Z,8.90
2023-02-13T21:38:30.892Z,7.57
2023-02-13T21:41:05.073Z,10.13
2023-02-13T21:43:37.586Z,10.65
2023-02-13T21:46:12.750Z,8.15
2023-02-13T21:48:41.128Z,10.20
2023-02-13T21:51:13.722Z,8.57
2023-02-13T21:53:41.546Z,9.77
2023-02-13T21:56:11.663Z,8.65
2023-02-13T21:58:39.831Z,9.18
2023-02-13T22:01:25.323Z,9.13
2023-02-13T22:03:56.384Z,13.73
2023-02-13T22:06:25.252Z,9.93
2023-02-13T22:09:13.122Z,9.52
2023-02-13T22:11:40.557Z,10.48
2023-02-13T22:14:10.403Z,8.85
2023-02-13T22:16:38.618Z,8.60
2023-02-13T22:19:07.030Z,8.73
2023-02-13T22:21:35.389Z,10.60
2023-02-13T22:24:02.679Z,12.20
2023-02-13T22:26:32.341Z,13.88
2023-02-13T22:29:01.964Z,13.73
2023-02-13T22:31:28.932Z,13.88
2023-02-13T22:34:05.233Z,15.80
2023-02-13T22:36:34.800Z,12.93
2023-02-13T22:39:01.759Z,10.75
2023-02-13T22:41:28.644Z,11.25
2023-02-13T22:43:55.865Z,10.45
2023-02-13T22:46:28.523Z,11.27
2023-02-13T22:48:56.259Z,11.00
2023-02-13T22:51:31.653Z,10.85
2023-02-13T22:54:00.732Z,12.05
2023-02-13T22:56:29.494Z,11.60
2023-02-13T22:58:57.206Z,10.00
2023-02-13T23:01:26.052Z,12.30
2023-02-13T23:03:53.226Z,10.60
2023-02-13T23:06:20.285Z,11.77
2023-02-13T23:08:52.375Z,10.93
2023-02-13T23:11:39.588Z,9.68
2023-02-13T23:14:06.452Z,10.38
2023-02-13T23:16:53.444Z,10.20
2023-02-13T23:19:21.180Z,13.60
2023-02-13T23:21:48.245Z,9.43
2023-02-13T23:24:15.545Z,9.02
2023-02-13T23:26:42.454Z,9.27
2023-02-13T23:29:09.590Z,10.05
2023-02-13T23:31:36.715Z,10.15
2023-02-13T23:34:04.091Z,11.98
2023-02-13T23:36:30.962Z,9.88
2023-02-13T23:38:57.813Z,10.73
2023-02-13T23:41:24.645Z,10.77
2023-02-13T23:43:51.487Z,9.27
2023-02-13T23:46:18.648Z,9.82
2023-02-13T23:48:46.140Z,10.80
2023-02-13T23:51:13.218Z,10.77
2023-02-13T23:53:40.075Z,10.15
2023-02-13T23:56:07.435Z,11.15
2023-02-13T23:58:34.329Z,9.13
